createdAt,value
2023-04-22T00:00:28.919Z,100152.25
2023-04-22T00:03:17.441Z,100150.95
2023-04-22T00:05:46.225Z,100151.80
2023-04-22T00:08:14.597Z,100147.11
2023-04-22T00:10:42.973Z,100149.29
2023-04-22T00:13:11.370Z,100146.84
2023-04-22T00:17:42.843Z,100149.39
2023-04-22T00:20:11.955Z,100146.60
2023-04-22T00:22:40.631Z,100147.31
2023-04-22T00:25:09.408Z,100146.77
2023-04-22T00:27:37.773Z,100146.23
2023-04-22T00:30:07.317Z,100144.70
2023-04-22T00:32:35.754Z,100145.83
2023-04-22T00:35:05.320Z,100142.25
2023-04-22T00:37:33.769Z,100138.08
2023-04-22T00:40:02.448Z,100139.18
2023-04-22T00:42:31.388Z,100139.31
2023-04-22T00:45:00.696Z,100138.77
2023-04-22T00:47:30.162Z,100140.77
2023-04-22T00:49:59.321Z,100149.74
2023-04-22T00:52:27.630Z,100154.40
2023-04-22T00:54:56.253Z,100144.48
2023-04-22T00:57:24.639Z,100146.44
2023-04-22T00:59:53.807Z,100152.30
2023-04-22T01:02:22.367Z,100150.30
2023-04-22T01:04:54.131Z,100150.33
2023-04-22T01:07:23.850Z,100150.59
2023-04-22T01:09:52.708Z,100147.72
2023-04-22T01:12:21.028Z,100147.67
2023-04-22T01:14:49.814Z,100152.23
2023-04-22T01:17:19.593Z,100150.41
2023-04-22T01:19:48.914Z,100148.08
2023-04-22T01:22:18.905Z,100147.59
2023-04-22T01:24:47.589Z,100148.35
2023-04-22T01:27:16.276Z,100149.67
2023-04-22T01:29:45.036Z,100153.27
2023-04-22T01:32:14.229Z,100146.33
2023-04-22T01:34:42.636Z,100147.02
2023-04-22T01:37:11.111Z,100143.70
2023-04-22T01:39:40.679Z,100148.29
2023-04-22T01:42:09.891Z,100144.24
2023-04-22T01:44:38.243Z,100144.79
2023-04-22T01:47:06.587Z,100142.35
2023-04-22T01:49:35.008Z,100144.87
2023-04-22T01:52:03.487Z,100143.70
2023-04-22T01:54:32.438Z,100141.83
2023-04-22T01:57:00.930Z,100146.91
2023-04-22T01:59:29.256Z,100145.82
2023-04-22T02:01:57.688Z,100139.93
2023-04-22T02:04:26.397Z,100139.23
2023-04-22T02:06:54.753Z,100140.56
2023-04-22T02:09:23.237Z,100136.13
2023-04-22T02:11:51.622Z,100129.63
2023-04-22T02:14:19.998Z,100127.11
2023-04-22T02:16:48.385Z,100123.84
2023-04-22T02:19:16.764Z,100125.84
2023-04-22T02:21:45.249Z,100123.36
2023-04-22T02:24:13.828Z,100125.42
2023-04-22T02:26:43.299Z,100119.29
2023-04-22T02:29:11.768Z,100114.16
2023-04-22T02:31:40.109Z,100113.23
2023-04-22T02:34:08.502Z,100116.62
2023-04-22T02:36:36.926Z,100117.83
2023-04-22T02:39:06.150Z,100117.73
2023-04-22T02:41:34.495Z,100113.03
2023-04-22T02:44:02.938Z,100113.52
2023-04-22T02:46:31.354Z,100114.97
2023-04-22T02:48:59.726Z,100114.74
2023-04-22T02:51:28.129Z,100117.06
2023-04-22T02:53:56.584Z,100116.83
2023-04-22T02:56:26.189Z,100111.22
2023-04-22T02:58:54.544Z,100107.83
2023-04-22T03:01:23.346Z,100109.75
2023-04-22T03:03:51.936Z,100105.25
2023-04-22T03:06:21.653Z,100107.20
2023-04-22T03:08:50.061Z,100111.87
2023-04-22T03:11:18.439Z,100111.59
2023-04-22T03:13:46.890Z,100109.40
2023-04-22T03:16:24.741Z,100108.77
2023-04-22T03:18:53.221Z,100108.52
2023-04-22T03:21:21.610Z,100109.98
2023-04-22T03:23:50.266Z,100107.40
2023-04-22T03:26:18.634Z,100108.73
2023-04-22T03:28:46.974Z,100107.77
2023-04-22T03:31:15.321Z,100106.94
2023-04-22T03:33:43.654Z,100105.66
2023-04-22T03:36:12.568Z,100103.88
2023-04-22T03:38:40.896Z,100103.08
2023-04-22T03:41:09.382Z,100104.94
2023-04-22T03:43:37.740Z,100105.66
2023-04-22T03:46:07.341Z,100099.88
2023-04-22T03:48:35.853Z,100104.21
2023-04-22T03:51:04.459Z,100101.92
2023-04-22T03:53:32.802Z,100102.64
2023-04-22T03:56:01.147Z,100099.29
2023-04-22T03:58:29.502Z,100103.61
2023-04-22T04:00:57.906Z,100105.27
2023-04-22T04:03:29.384Z,100106.00
2023-04-22T04:05:59.502Z,100103.50
2023-04-22T04:08:28.121Z,100103.92
2023-04-22T04:10:56.552Z,100108.39
2023-04-22T04:13:24.987Z,100103.66
2023-04-22T04:15:53.775Z,100107.60
2023-04-22T04:18:23.643Z,100103.19
2023-04-22T04:20:52.038Z,100099.24
2023-04-22T04:23:20.484Z,100103.15
2023-04-22T04:25:48.952Z,100099.80
2023-04-22T04:28:17.794Z,100102.83
2023-04-22T04:30:46.420Z,100103.89
2023-04-22T04:33:17.235Z,100098.98
2023-04-22T04:35:45.698Z,100104.45
2023-04-22T04:38:14.465Z,100101.65
2023-04-22T04:40:43.707Z,100106.30
2023-04-22T04:43:13.234Z,100108.23
2023-04-22T04:45:48.336Z,100111.64
2023-04-22T04:48:20.021Z,100110.43
2023-04-22T04:50:48.526Z,100110.59
2023-04-22T04:53:17.205Z,100115.55
2023-04-22T04:55:45.681Z,100118.49
2023-04-22T04:58:14.171Z,100121.60
2023-04-22T05:00:42.714Z,100116.59
2023-04-22T05:03:11.160Z,100118.19
2023-04-22T05:05:40.004Z,100121.01
2023-04-22T05:08:08.440Z,100116.63
2023-04-22T05:10:36.826Z,100121.73
2023-04-22T05:13:05.294Z,100118.61
2023-04-22T05:15:33.739Z,100120.20
2023-04-22T05:18:02.610Z,100117.56
2023-04-22T05:20:32.652Z,100118.04
2023-04-22T05:23:03.060Z,100123.22
2023-04-22T05:25:31.684Z,100121.20
2023-04-22T05:28:00.139Z,100119.72
2023-04-22T05:30:28.576Z,100121.15
2023-04-22T05:32:57.074Z,100122.36
2023-04-22T05:35:25.729Z,100124.70
2023-04-22T05:37:54.251Z,100126.90
2023-04-22T05:40:22.783Z,100127.00
2023-04-22T05:42:51.321Z,100124.61
2023-04-22T05:45:19.940Z,100124.83
2023-04-22T05:47:48.397Z,100124.37
2023-04-22T05:50:16.856Z,100121.76
2023-04-22T05:52:45.307Z,100119.63
2023-04-22T05:55:13.864Z,100116.14
2023-04-22T05:57:42.279Z,100114.60
2023-04-22T06:00:11.624Z,100117.92
2023-04-22T06:02:40.417Z,100115.23
2023-04-22T06:05:09.959Z,100116.42
2023-04-22T06:07:38.466Z,100121.31
2023-04-22T06:10:08.159Z,100118.89
2023-04-22T06:12:36.553Z,100125.23
2023-04-22T06:15:06.331Z,100129.61
2023-04-22T06:17:34.735Z,100128.82
2023-04-22T06:20:03.552Z,100127.33
2023-04-22T06:22:32.020Z,100125.11
2023-04-22T06:25:00.686Z,100128.10
2023-04-22T06:27:30.028Z,100126.29
2023-04-22T06:29:58.418Z,100121.51
2023-04-22T06:32:26.820Z,100121.44
2023-04-22T06:34:55.397Z,100121.20
2023-04-22T06:39:59.844Z,100115.61
2023-04-22T06:42:42.177Z,100120.72
2023-04-22T06:45:13.457Z,100124.15
2023-04-22T06:47:42.102Z,100121.02
2023-04-22T06:50:49.374Z,100120.38
2023-04-22T06:53:17.870Z,100127.39
2023-04-22T06:55:46.323Z,100126.73
2023-04-22T06:58:14.754Z,100128.61
2023-04-22T07:00:43.588Z,100121.23
2023-04-22T07:03:12.052Z,100121.13
2023-04-22T07:05:40.600Z,100123.39
2023-04-22T07:08:09.047Z,100122.23
2023-04-22T07:10:37.615Z,100125.36
2023-04-22T07:13:06.341Z,100126.46
2023-04-22T07:15:34.756Z,100124.43
2023-04-22T07:18:03.198Z,100125.77
2023-04-22T07:20:31.772Z,100124.19
2023-04-22T07:23:00.216Z,100129.16
2023-04-22T07:25:28.866Z,100128.22
2023-04-22T07:27:57.432Z,100127.33
2023-04-22T07:30:26.506Z,100127.58
2023-04-22T07:32:55.589Z,100130.63
2023-04-22T07:35:24.109Z,100129.09
2023-04-22T07:37:52.503Z,100126.35
2023-04-22T07:40:21.687Z,100129.00
2023-04-22T07:42:50.253Z,100127.55
2023-04-22T07:45:19.558Z,100131.13
2023-04-22T07:47:48.113Z,100132.38
2023-04-22T07:50:16.582Z,100131.09
2023-04-22T07:52:44.943Z,100131.52
2023-04-22T07:55:13.379Z,100134.91
2023-04-22T07:57:41.836Z,100133.01
2023-04-22T08:00:11.335Z,100129.60
2023-04-22T08:02:39.956Z,100123.94
2023-04-22T08:07:38.389Z,100121.73
2023-04-22T08:10:07.752Z,100123.38
2023-04-22T08:13:02.433Z,100124.92
2023-04-22T08:15:30.982Z,100123.55
2023-04-22T08:17:59.584Z,100121.08
2023-04-22T08:20:27.997Z,100119.23
2023-04-22T08:23:00.660Z,100122.63
2023-04-22T08:25:45.676Z,100119.70
2023-04-22T08:28:16.345Z,100119.36
2023-04-22T08:30:46.654Z,100122.00
2023-04-22T08:33:45.002Z,100116.48
2023-04-22T08:38:58.637Z,100111.58
2023-04-22T08:41:27.106Z,100112.20
2023-04-22T08:43:56.017Z,100110.92
2023-04-22T08:46:25.747Z,100111.91
2023-04-22T08:49:07.440Z,100112.25
2023-04-22T08:51:38.100Z,100108.90
2023-04-22T08:54:10.279Z,100109.89
2023-04-22T08:56:45.403Z,100110.09
2023-04-22T08:59:13.997Z,100109.96
2023-04-22T09:01:48.374Z,100111.41
2023-04-22T09:04:20.609Z,100108.77
2023-04-22T09:07:25.716Z,100106.42
2023-04-22T09:09:58.530Z,100105.13
2023-04-22T09:12:37.618Z,100104.44
2023-04-22T09:15:17.060Z,100100.96
2023-04-22T09:17:47.612Z,100101.52
2023-04-22T09:20:19.849Z,100100.02
2023-04-22T09:22:50.242Z,100101.48
2023-04-22T09:25:22.326Z,100097.02
2023-04-22T09:28:04.999Z,100096.48
2023-04-22T09:30:39.095Z,100093.80
2023-04-22T09:33:07.995Z,100094.49
2023-04-22T09:35:40.085Z,100095.90
2023-04-22T09:38:11.411Z,100090.64
2023-04-22T09:40:44.366Z,100086.55
2023-04-22T09:43:17.768Z,100087.55
2023-04-22T09:45:46.259Z,100087.19
2023-04-22T09:48:19.767Z,100083.49
2023-04-22T09:50:51.374Z,100079.70
2023-04-22T09:53:27.896Z,100079.36
2023-04-22T09:55:56.334Z,100077.99
2023-04-22T09:58:26.674Z,100078.38
2023-04-22T10:01:03.508Z,100074.66
2023-04-22T10:03:32.919Z,100074.46
2023-04-22T10:06:01.930Z,100075.02
2023-04-22T10:08:30.830Z,100075.73
2023-04-22T10:10:59.171Z,100078.30
2023-04-22T10:13:27.562Z,100075.06
2023-04-22T10:15:57.425Z,100074.08
2023-04-22T10:18:28.158Z,100075.69
2023-04-22T10:20:59.002Z,100075.64
2023-04-22T10:23:32.661Z,100070.80
2023-04-22T10:26:01.381Z,100073.23
2023-04-22T10:28:30.909Z,100065.61
2023-04-22T10:30:59.404Z,100066.62
2023-04-22T10:33:28.955Z,100063.48
2023-04-22T10:36:18.383Z,100061.67
2023-04-22T10:38:55.635Z,100059.85
2023-04-22T10:41:32.515Z,100052.20
2023-04-22T10:44:09.115Z,100050.66
2023-04-22T10:46:42.496Z,100050.20
2023-04-22T10:49:18.356Z,100050.71
2023-04-22T10:52:00.371Z,100049.70
2023-04-22T10:54:37.914Z,100048.11
2023-04-22T10:57:19.230Z,100045.59
2023-04-22T10:59:52.746Z,100042.10
2023-04-22T11:02:24.552Z,100041.02
2023-04-22T11:05:27.483Z,100041.83
2023-04-22T11:08:04.608Z,100037.67
2023-04-22T11:10:35.680Z,100031.36
2023-04-22T11:13:07.187Z,100027.97
2023-04-22T11:15:38.268Z,100027.38
2023-04-22T11:18:24.111Z,100021.71
2023-04-22T11:20:53.936Z,100017.67
2023-04-22T11:23:25.206Z,100013.80
2023-04-22T11:26:00.009Z,100012.81
2023-04-22T11:28:28.597Z,100009.95
2023-04-22T11:31:10.397Z,100007.78
2023-04-22T11:33:39.335Z,100008.14
2023-04-22T11:36:12.083Z,100004.98
2023-04-22T11:38:40.499Z,100002.39
2023-04-22T11:41:08.930Z,99997.20
2023-04-22T11:43:47.906Z,100000.92
2023-04-22T11:46:16.392Z,99998.11
2023-04-22T11:48:44.802Z,99993.00
2023-04-22T11:51:13.217Z,99993.19
2023-04-22T11:53:51.263Z,99993.73
2023-04-22T11:56:21.687Z,99989.81
2023-04-22T12:01:42.192Z,99989.36
2023-04-22T12:04:11.238Z,99986.40
2023-04-22T12:06:41.237Z,99981.73
2023-04-22T12:09:11.991Z,99980.23
2023-04-22T12:11:41.866Z,99981.59
2023-04-22T12:14:12.090Z,99976.55
2023-04-22T12:16:42.843Z,99983.13
2023-04-22T12:19:11.386Z,99978.95
2023-04-22T12:21:41.975Z,99978.57
2023-04-22T12:24:15.045Z,99975.84
2023-04-22T12:26:43.588Z,99976.02
2023-04-22T12:29:16.896Z,99970.20
2023-04-22T12:31:46.250Z,99968.61
2023-04-22T12:34:14.560Z,99962.50
2023-04-22T12:36:42.959Z,99965.45
2023-04-22T12:39:11.309Z,99960.87
2023-04-22T12:41:39.845Z,99958.98
2023-04-22T12:44:11.096Z,99953.48
2023-04-22T12:46:39.445Z,99950.77
2023-04-22T12:49:07.930Z,99949.48
2023-04-22T12:51:36.353Z,99945.98
2023-04-22T12:54:04.723Z,99937.78
2023-04-22T12:56:33.065Z,99934.33
2023-04-22T12:59:03.290Z,99935.73
2023-04-22T13:01:33.803Z,99930.42
2023-04-22T13:04:03.806Z,99930.33
2023-04-22T13:06:33.108Z,99927.55
2023-04-22T13:09:02.107Z,99923.65
2023-04-22T13:11:30.435Z,99925.06
2023-04-22T13:13:58.863Z,99919.09
2023-04-22T13:16:27.275Z,99913.37
2023-04-22T13:18:55.853Z,99909.01
2023-04-22T13:21:24.186Z,99905.82
2023-04-22T13:23:53.167Z,99900.45
2023-04-22T13:26:22.416Z,99893.05
2023-04-22T13:28:50.744Z,99894.02
2023-04-22T13:31:19.117Z,99892.77
2023-04-22T13:33:47.867Z,99893.58
2023-04-22T13:36:16.168Z,99890.82
2023-04-22T13:38:44.783Z,99892.02
2023-04-22T13:41:13.192Z,99889.28
2023-04-22T13:43:41.689Z,99891.39
2023-04-22T13:46:28.468Z,99892.33
2023-04-22T13:48:56.886Z,99891.27
2023-04-22T13:51:25.612Z,99888.00
2023-04-22T13:53:54.102Z,99886.56
2023-04-22T13:56:25.052Z,99884.23
2023-04-22T13:58:55.482Z,99882.36
2023-04-22T14:01:25.287Z,99875.19
2023-04-22T14:03:54.927Z,99873.50
2023-04-22T14:06:23.587Z,99869.86
2023-04-22T14:08:51.922Z,99872.88
2023-04-22T14:11:20.757Z,99869.56
2023-04-22T14:13:49.668Z,99867.51
2023-04-22T14:16:19.589Z,99865.84
2023-04-22T14:18:57.293Z,99861.17
2023-04-22T14:21:27.409Z,99862.48
2023-04-22T14:23:56.451Z,99860.15
2023-04-22T14:26:24.849Z,99856.37
2023-04-22T14:28:53.186Z,99859.73
2023-04-22T14:31:21.953Z,99856.77
2023-04-22T14:33:51.408Z,99854.65
2023-04-22T14:36:19.838Z,99849.74
2023-04-22T14:38:48.121Z,99845.90
2023-04-22T14:41:16.509Z,99840.92
2023-04-22T14:43:44.983Z,99842.15
2023-04-22T14:46:13.397Z,99841.55
2023-04-22T14:48:44.823Z,99842.86
2023-04-22T14:51:20.237Z,99842.52
2023-04-22T14:53:50.117Z,99840.48
2023-04-22T14:56:53.122Z,99838.46
2023-04-22T14:59:22.311Z,99834.57
2023-04-22T15:01:51.206Z,99835.85
2023-04-22T15:04:19.722Z,99831.93
2023-04-22T15:06:48.289Z,99828.11
2023-04-22T15:09:16.932Z,99824.94
2023-04-22T15:11:45.509Z,99825.02
2023-04-22T15:14:15.971Z,99824.67
2023-04-22T15:16:46.238Z,99824.92
2023-04-22T15:19:14.628Z,99826.02
2023-04-22T15:21:42.977Z,99821.93
2023-04-22T15:24:11.323Z,99815.00
2023-04-22T15:26:40.721Z,99810.02
2023-04-22T15:29:09.102Z,99808.84
2023-04-22T15:31:37.658Z,99809.46
2023-04-22T15:34:06.384Z,99811.10
2023-04-22T15:36:59.773Z,99813.59
2023-04-22T15:39:28.536Z,99815.48
2023-04-22T15:41:57.262Z,99814.52
2023-04-22T15:44:28.459Z,99814.77
2023-04-22T15:46:59.652Z,99811.77
2023-04-22T15:49:28.501Z,99814.86
2023-04-22T15:51:57.996Z,99810.94
2023-04-22T15:54:26.471Z,99808.85
2023-04-22T15:56:55.056Z,99804.80
2023-04-22T15:59:23.530Z,99804.84
2023-04-22T16:01:52.243Z,99804.36
2023-04-22T16:04:21.247Z,99801.90
2023-04-22T16:06:50.921Z,99798.59
2023-04-22T16:09:19.477Z,99798.45
2023-04-22T16:11:47.901Z,99795.36
2023-04-22T16:14:16.979Z,99792.70
2023-04-22T16:16:45.866Z,99786.46
2023-04-22T16:19:14.517Z,99787.27
2023-04-22T16:21:42.886Z,99789.66
2023-04-22T16:24:11.234Z,99787.52
2023-04-22T16:26:40.613Z,99784.09
2023-04-22T16:29:09.120Z,99782.41
2023-04-22T16:31:38.733Z,99778.38
2023-04-22T16:34:07.502Z,99775.02
2023-04-22T16:36:35.913Z,99768.88
2023-04-22T16:39:04.707Z,99772.39
2023-04-22T16:41:34.916Z,99771.83
2023-04-22T16:44:03.266Z,99769.91
2023-04-22T16:46:31.684Z,99766.40
2023-04-22T16:49:00.170Z,99765.11
2023-04-22T16:51:28.613Z,99763.27
2023-04-22T16:53:56.981Z,99758.41
2023-04-22T17:02:20.076Z,99752.25
2023-04-22T17:04:48.764Z,99749.72
2023-04-22T17:07:17.272Z,99750.47
2023-04-22T17:09:45.712Z,99749.85
2023-04-22T17:12:14.097Z,99750.17
2023-04-22T17:14:43.841Z,99741.98
2023-04-22T17:17:12.539Z,99744.34
2023-04-22T17:19:43.312Z,99736.88
2023-04-22T17:22:12.849Z,99730.45
2023-04-22T17:24:41.333Z,99727.17
2023-04-22T17:27:09.890Z,99724.02
2023-04-22T17:29:38.520Z,99724.73
2023-04-22T17:32:07.345Z,99722.16
2023-04-22T17:34:35.964Z,99720.59
2023-04-22T17:37:04.342Z,99724.48
2023-04-22T17:39:32.865Z,99727.04
2023-04-22T17:42:02.558Z,99724.48
2023-04-22T17:44:31.702Z,99724.27
2023-04-22T17:47:00.268Z,99722.02
2023-04-22T17:49:28.815Z,99725.13
2023-04-22T17:51:57.907Z,99729.10
2023-04-22T17:54:26.640Z,99732.40
2023-04-22T17:56:55.080Z,99733.79
2023-04-22T17:59:23.531Z,99731.77
2023-04-22T18:01:52.015Z,99732.99
2023-04-22T18:04:21.229Z,99735.05
2023-04-22T18:06:49.616Z,99737.89
2023-04-22T18:09:20.271Z,99732.89
2023-04-22T18:11:48.777Z,99735.12
2023-04-22T18:14:17.558Z,99738.95
2023-04-22T18:16:45.982Z,99736.98
2023-04-22T18:19:14.411Z,99740.32
2023-04-22T18:21:56.905Z,99744.60
2023-04-22T18:24:28.569Z,99748.02
2023-04-22T18:26:56.965Z,99749.25
2023-04-22T18:29:26.212Z,99748.42
2023-04-22T18:31:54.722Z,99750.16
2023-04-22T18:34:23.735Z,99754.52
2023-04-22T18:36:54.676Z,99756.71
2023-04-22T18:41:57.939Z,99763.11
2023-04-22T18:44:26.796Z,99762.52
2023-04-22T18:46:55.339Z,99761.26
2023-04-22T18:49:23.685Z,99765.09
2023-04-22T18:51:52.345Z,99758.30
2023-04-22T18:54:20.829Z,99757.55
2023-04-22T18:56:49.159Z,99752.96
2023-04-22T18:59:17.482Z,99756.43
2023-04-22T19:02:06.498Z,99755.52
2023-04-22T19:04:35.039Z,99756.26
2023-04-22T19:07:04.529Z,99760.11
2023-04-22T19:09:32.942Z,99761.01
2023-04-22T19:12:02.195Z,99760.16
2023-04-22T19:17:50.578Z,99757.98
2023-04-22T19:20:19.203Z,99759.27
2023-04-22T19:22:47.526Z,99758.04
2023-04-22T19:25:16.229Z,99761.98
2023-04-22T19:27:44.658Z,99755.98
2023-04-22T19:30:20.277Z,99761.23
2023-04-22T19:32:48.883Z,99762.81
2023-04-22T19:35:17.329Z,99758.77
2023-04-22T19:37:45.833Z,99758.41
2023-04-22T19:40:17.334Z,99757.56
2023-04-22T19:42:53.801Z,99759.92
2023-04-22T19:45:22.132Z,99761.21
2023-04-22T19:47:56.529Z,99756.39
2023-04-22T19:50:25.916Z,99757.01
2023-04-22T19:55:36.219Z,99754.15
2023-04-22T19:58:05.749Z,99753.61
2023-04-22T20:00:35.348Z,99750.23
2023-04-22T20:03:04.406Z,99750.35
2023-04-22T20:05:34.685Z,99745.84
2023-04-22T20:08:03.747Z,99747.69
2023-04-22T20:10:32.569Z,99748.78
2023-04-22T20:13:03.895Z,99746.11
2023-04-22T20:15:33.244Z,99746.04
2023-04-22T20:18:02.124Z,99743.50
2023-04-22T20:20:30.880Z,99745.19
2023-04-22T20:23:07.590Z,99744.19
2023-04-22T20:29:00.459Z,99741.38
2023-04-22T20:31:29.079Z,99742.15
2023-04-22T20:33:58.118Z,99743.67
2023-04-22T20:36:26.746Z,99744.86
2023-04-22T20:38:56.223Z,99746.55
2023-04-22T20:41:25.788Z,99745.04
2023-04-22T20:43:54.198Z,99747.42
2023-04-22T20:46:23.303Z,99746.33
2023-04-22T20:48:52.398Z,99749.33
2023-04-22T20:51:20.816Z,99746.79
2023-04-22T20:53:50.629Z,99747.23
2023-04-22T20:56:21.458Z,99746.52
2023-04-22T20:58:49.811Z,99741.37
2023-04-22T21:01:23.191Z,99742.62
2023-04-22T21:03:53.114Z,99739.38
2023-04-22T21:06:23.148Z,99740.79
2023-04-22T21:08:52.902Z,99738.12
2023-04-22T21:11:21.656Z,99738.61
2023-04-22T21:13:54.471Z,99738.67
2023-04-22T21:16:30.452Z,99742.90
2023-04-22T21:19:03.039Z,99737.61
2023-04-22T21:21:34.069Z,99746.89
2023-04-22T21:24:07.243Z,99742.20
2023-04-22T21:26:40.174Z,99745.45
2023-04-22T21:29:08.927Z,99748.10
2023-04-22T21:31:37.883Z,99745.89
2023-04-22T21:34:10.210Z,99744.89
2023-04-22T21:36:38.702Z,99746.14
2023-04-22T21:39:08.380Z,99747.15
2023-04-22T21:41:36.947Z,99748.95
2023-04-22T21:44:05.264Z,99746.87
2023-04-22T21:46:33.681Z,99749.65
2023-04-22T21:49:02.090Z,99748.84
2023-04-22T21:51:31.490Z,99748.19
2023-04-22T21:53:59.965Z,99752.02
2023-04-22T21:56:28.376Z,99752.55
2023-04-22T21:58:57.779Z,99752.66
2023-04-22T22:01:26.335Z,99754.98
2023-04-22T22:03:54.983Z,99753.27
2023-04-22T22:06:23.891Z,99755.92
2023-04-22T22:08:55.198Z,99755.92
2023-04-22T22:11:31.030Z,99755.14
2023-04-22T22:13:59.903Z,99750.48
2023-04-22T22:16:28.816Z,99752.11
2023-04-22T22:19:03.613Z,99751.30
2023-04-22T22:21:33.001Z,99750.80
2023-04-22T22:24:01.587Z,99751.61
2023-04-22T22:26:30.007Z,99749.92
2023-04-22T22:28:58.370Z,99750.35
2023-04-22T22:31:26.755Z,99750.61
2023-04-22T22:33:55.360Z,99751.91
2023-04-22T22:36:23.728Z,99748.14
2023-04-22T22:38:52.152Z,99749.20
2023-04-22T22:41:20.641Z,99748.42
2023-04-22T22:43:49.039Z,99748.23
2023-04-22T22:46:17.552Z,99748.21
2023-04-22T22:48:46.525Z,99749.27
2023-04-22T22:51:18.375Z,99748.16
2023-04-22T22:53:47.073Z,99748.15
2023-04-22T22:56:15.574Z,99747.73
2023-04-22T22:58:44.845Z,99746.95
2023-04-22T23:01:13.188Z,99748.88
2023-04-22T23:03:41.859Z,99747.23
2023-04-22T23:06:10.495Z,99747.06
2023-04-22T23:08:38.880Z,99751.10
2023-04-22T23:11:07.288Z,99748.19
2023-04-22T23:13:35.697Z,99747.56
2023-04-22T23:16:04.566Z,99746.10
2023-04-22T23:18:34.025Z,99740.52
2023-04-22T23:21:02.912Z,99739.21
2023-04-22T23:23:32.770Z,99738.32
2023-04-22T23:26:01.567Z,99737.37
2023-04-22T23:28:30.514Z,99734.52
2023-04-22T23:31:00.120Z,99735.98
2023-04-22T23:33:31.113Z,99735.08
2023-04-22T23:36:00.776Z,99734.13
2023-04-22T23:38:29.122Z,99732.92
2023-04-22T23:40:57.653Z,99732.89
2023-04-22T23:43:26.085Z,99734.48
2023-04-22T23:45:54.566Z,99730.63
2023-04-22T23:48:23.130Z,99727.08
2023-04-22T23:50:51.492Z,99727.81
2023-04-22T23:53:19.804Z,99726.88
2023-04-22T23:55:48.547Z,99726.95
2023-04-22T23:58:17.166Z,99732.39
